Terminal Aerodrome Forecast
Issued by NWS

Home | Current Version | Previous Version | Text Only | Print | Product List | Glossary On
Versions: 1 2 3 4 5 6 7 8 9 10 11 12 13 14 15 16 17 18 19 20 21 22
529
FTUS46 KLOX 101418 AAB
TAFOXR
TAF AMD
KOXR 101418Z 1014/1112 VRB03KT 3SM BR OVC006
     FM101600 VRB03KT 4SM BR SCT007 OVC015
     FM101800 VRB03KT P6SM BKN015
     FM102100 27012KT P6SM SCT015 BKN030
     FM110300 VRB03KT P6SM BKN015=

USA.gov is the U.S. government's official web portal to all federal, state and local government web resources and services.